sensor_id;sensor_type;location;lat;lon;timestamp;pressure;altitude;pressure_sealevel;temperature;humidity
51299;BME280;37382;45.192;9.790;2023-06-05T00:01:46;101281.94;;;18.31;100.00
51299;BME280;37382;45.192;9.790;2023-06-05T00:04:13;101280.50;;;18.41;100.00
51299;BME280;37382;45.192;9.790;2023-06-05T00:06:41;101282.72;;;18.08;100.00
51299;BME280;37382;45.192;9.790;2023-06-05T00:09:10;101284.81;;;18.25;100.00
51299;BME280;37382;45.192;9.790;2023-06-05T00:11:37;101271.16;;;18.18;100.00
51299;BME280;37382;45.192;9.790;2023-06-05T00:14:05;101272.47;;;18.16;100.00
51299;BME280;37382;45.192;9.790;2023-06-05T00:16:32;101273.81;;;17.94;100.00
51299;BME280;37382;45.192;9.790;2023-06-05T00:19:00;101272.31;;;17.80;100.00
51299;BME280;37382;45.192;9.790;2023-06-05T00:21:28;101279.78;;;17.91;100.00
51299;BME280;37382;45.192;9.790;2023-06-05T00:23:56;101272.09;;;18.12;100.00
51299;BME280;37382;45.192;9.790;2023-06-05T00:26:23;101273.16;;;18.11;100.00
51299;BME280;37382;45.192;9.790;2023-06-05T00:28:51;101272.53;;;17.97;100.00
51299;BME280;37382;45.192;9.790;2023-06-05T00:31:19;101273.91;;;18.18;100.00
51299;BME280;37382;45.192;9.790;2023-06-05T00:33:49;101272.81;;;18.19;100.00
51299;BME280;37382;45.192;9.790;2023-06-05T00:36:19;101277.94;;;18.58;100.00
51299;BME280;37382;45.192;9.790;2023-06-05T00:38:50;101262.47;;;18.57;100.00
51299;BME280;37382;45.192;9.790;2023-06-05T00:41:17;101268.56;;;18.59;100.00
51299;BME280;37382;45.192;9.790;2023-06-05T00:43:45;101257.66;;;18.40;100.00
51299;BME280;37382;45.192;9.790;2023-06-05T00:46:13;101262.00;;;18.72;100.00
51299;BME280;37382;45.192;9.790;2023-06-05T00:48:41;101259.34;;;18.77;100.00
51299;BME280;37382;45.192;9.790;2023-06-05T00:51:09;101265.94;;;18.64;100.00
51299;BME280;37382;45.192;9.790;2023-06-05T00:53:44;101265.38;;;18.86;100.00
51299;BME280;37382;45.192;9.790;2023-06-05T00:56:12;101269.22;;;18.96;100.00
51299;BME280;37382;45.192;9.790;2023-06-05T00:58:40;101265.63;;;18.96;100.00
51299;BME280;37382;45.192;9.790;2023-06-05T01:01:09;101260.91;;;18.73;100.00
51299;BME280;37382;45.192;9.790;2023-06-05T01:03:38;101255.81;;;18.88;100.00
51299;BME280;37382;45.192;9.790;2023-06-05T01:06:07;101263.66;;;18.84;100.00
51299;BME280;37382;45.192;9.790;2023-06-05T01:08:36;101255.91;;;18.93;100.00
51299;BME280;37382;45.192;9.790;2023-06-05T01:11:16;101257.06;;;19.09;100.00
51299;BME280;37382;45.192;9.790;2023-06-05T01:13:54;101247.72;;;19.10;100.00
51299;BME280;37382;45.192;9.790;2023-06-05T01:16:22;101247.00;;;19.03;100.00
51299;BME280;37382;45.192;9.790;2023-06-05T01:19:01;101250.97;;;18.95;100.00
51299;BME280;37382;45.192;9.790;2023-06-05T01:21:31;101247.28;;;18.90;100.00
51299;BME280;37382;45.192;9.790;2023-06-05T01:23:59;101250.28;;;18.88;100.00
51299;BME280;37382;45.192;9.790;2023-06-05T01:26:36;101246.81;;;18.93;100.00
51299;BME280;37382;45.192;9.790;2023-06-05T01:29:09;101248.22;;;18.95;100.00
51299;BME280;37382;45.192;9.790;2023-06-05T01:31:41;101238.16;;;18.89;100.00
51299;BME280;37382;45.192;9.790;2023-06-05T01:34:14;101238.00;;;18.37;100.00
51299;BME280;37382;45.192;9.790;2023-06-05T01:36:47;101236.31;;;18.24;100.00
51299;BME280;37382;45.192;9.790;2023-06-05T01:39:15;101235.84;;;18.15;100.00
51299;BME280;37382;45.192;9.790;2023-06-05T01:41:45;101231.28;;;18.09;100.00
51299;BME280;37382;45.192;9.790;2023-06-05T01:44:14;101232.72;;;18.23;100.00
51299;BME280;37382;45.192;9.790;2023-06-05T01:46:43;101231.16;;;18.16;100.00
51299;BME280;37382;45.192;9.790;2023-06-05T01:49:11;101231.50;;;18.07;100.00
51299;BME280;37382;45.192;9.790;2023-06-05T01:51:38;101230.41;;;17.78;100.00
51299;BME280;37382;45.192;9.790;2023-06-05T01:54:06;101232.06;;;17.98;100.00
51299;BME280;37382;45.192;9.790;2023-06-05T01:56:34;101228.25;;;17.99;100.00
51299;BME280;37382;45.192;9.790;2023-06-05T01:59:04;101218.81;;;18.06;100.00
51299;BME280;37382;45.192;9.790;2023-06-05T02:01:34;101219.75;;;18.00;100.00
51299;BME280;37382;45.192;9.790;2023-06-05T02:04:02;101224.97;;;18.32;100.00
51299;BME280;37382;45.192;9.790;2023-06-05T02:06:33;101227.00;;;18.48;100.00
51299;BME280;37382;45.192;9.790;2023-06-05T02:09:09;101225.53;;;18.22;100.00
51299;BME280;37382;45.192;9.790;2023-06-05T02:11:40;101223.72;;;18.16;100.00
51299;BME280;37382;45.192;9.790;2023-06-05T02:14:13;101223.28;;;18.31;100.00
51299;BME280;37382;45.192;9.790;2023-06-05T02:16:41;101217.03;;;18.24;100.00
51299;BME280;37382;45.192;9.790;2023-06-05T02:19:10;101221.13;;;18.21;100.00
51299;BME280;37382;45.192;9.790;2023-06-05T02:21:38;101227.44;;;18.22;100.00
51299;BME280;37382;45.192;9.790;2023-06-05T02:24:06;101221.09;;;18.33;100.00
51299;BME280;37382;45.192;9.790;2023-06-05T02:26:34;101223.75;;;18.28;100.00
51299;BME280;37382;45.192;9.790;2023-06-05T02:29:01;101223.38;;;18.24;100.00
51299;BME280;37382;45.192;9.790;2023-06-05T02:31:29;101224.72;;;18.34;100.00
51299;BME280;37382;45.192;9.790;2023-06-05T02:33:57;101216.47;;;18.34;100.00
51299;BME280;37382;45.192;9.790;2023-06-05T02:36:25;101219.69;;;18.54;100.00
51299;BME280;37382;45.192;9.790;2023-06-05T02:38:52;101217.91;;;18.60;100.00
51299;BME280;37382;45.192;9.790;2023-06-05T02:41:21;101211.09;;;18.62;100.00
51299;BME280;37382;45.192;9.790;2023-06-05T02:43:49;101211.28;;;18.37;100.00
51299;BME280;37382;45.192;9.790;2023-06-05T02:46:17;101216.00;;;18.48;100.00
51299;BME280;37382;45.192;9.790;2023-06-05T02:48:46;101210.84;;;18.52;100.00
51299;BME280;37382;45.192;9.790;2023-06-05T02:51:14;101211.31;;;18.49;100.00
51299;BME280;37382;45.192;9.790;2023-06-05T02:53:44;101200.28;;;18.37;100.00
51299;BME280;37382;45.192;9.790;2023-06-05T02:56:14;101207.25;;;18.52;100.00
51299;BME280;37382;45.192;9.790;2023-06-05T02:58:43;101199.47;;;18.48;100.00
51299;BME280;37382;45.192;9.790;2023-06-05T03:01:13;101202.91;;;18.56;100.00
51299;BME280;37382;45.192;9.790;2023-06-05T03:03:44;101198.25;;;18.44;100.00
51299;BME280;37382;45.192;9.790;2023-06-05T03:06:12;101204.00;;;18.31;100.00
51299;BME280;37382;45.192;9.790;2023-06-05T03:08:47;101203.75;;;18.44;100.00
51299;BME280;37382;45.192;9.790;2023-06-05T03:11:18;101198.50;;;18.43;100.00
51299;BME280;37382;45.192;9.790;2023-06-05T03:13:48;101190.47;;;18.53;100.00
51299;BME280;37382;45.192;9.790;2023-06-05T03:16:16;101192.03;;;18.61;100.00
51299;BME280;37382;45.192;9.790;2023-06-05T03:18:49;101193.81;;;18.67;100.00
51299;BME280;37382;45.192;9.790;2023-06-05T03:21:17;101186.53;;;18.61;100.00
51299;BME280;37382;45.192;9.790;2023-06-05T03:23:44;101196.00;;;18.53;100.00
51299;BME280;37382;45.192;9.790;2023-06-05T03:26:14;101195.13;;;18.76;100.00
51299;BME280;37382;45.192;9.790;2023-06-05T03:28:41;101193.69;;;18.62;100.00
51299;BME280;37382;45.192;9.790;2023-06-05T03:31:11;101193.00;;;18.43;100.00
51299;BME280;37382;45.192;9.790;2023-06-05T03:33:43;101189.03;;;18.51;100.00
51299;BME280;37382;45.192;9.790;2023-06-05T03:36:12;101191.91;;;18.56;100.00
51299;BME280;37382;45.192;9.790;2023-06-05T03:38:43;101189.03;;;18.62;100.00
51299;BME280;37382;45.192;9.790;2023-06-05T03:41:11;101186.16;;;18.57;100.00
51299;BME280;37382;45.192;9.790;2023-06-05T03:43:39;101197.44;;;18.44;100.00
51299;BME280;37382;45.192;9.790;2023-06-05T03:46:07;101195.13;;;18.41;100.00
51299;BME280;37382;45.192;9.790;2023-06-05T03:48:35;101188.19;;;18.38;100.00
51299;BME280;37382;45.192;9.790;2023-06-05T03:51:03;101192.50;;;18.34;100.00
51299;BME280;37382;45.192;9.790;2023-06-05T03:53:33;101194.88;;;18.42;100.00
51299;BME280;37382;45.192;9.790;2023-06-05T03:56:02;101189.38;;;18.42;100.00
51299;BME280;37382;45.192;9.790;2023-06-05T03:58:35;101196.81;;;18.42;100.00
51299;BME280;37382;45.192;9.790;2023-06-05T04:01:03;101191.53;;;18.40;100.00
51299;BME280;37382;45.192;9.790;2023-06-05T04:03:31;101199.19;;;18.26;100.00
51299;BME280;37382;45.192;9.790;2023-06-05T04:05:59;101196.81;;;18.54;100.00
51299;BME280;37382;45.192;9.790;2023-06-05T04:08:27;101196.56;;;18.55;100.00
51299;BME280;37382;45.192;9.790;2023-06-05T04:10:55;101189.63;;;18.64;100.00
51299;BME280;37382;45.192;9.790;2023-06-05T04:13:23;101196.94;;;18.47;100.00
51299;BME280;37382;45.192;9.790;2023-06-05T04:15:50;101195.13;;;18.41;100.00
51299;BME280;37382;45.192;9.790;2023-06-05T04:18:19;101203.63;;;18.39;100.00
51299;BME280;37382;45.192;9.790;2023-06-05T04:20:50;101202.69;;;18.45;100.00
51299;BME280;37382;45.192;9.790;2023-06-05T04:23:18;101196.94;;;18.47;100.00
51299;BME280;37382;45.192;9.790;2023-06-05T04:25:45;101193.81;;;18.55;100.00
51299;BME280;37382;45.192;9.790;2023-06-05T04:28:16;101198.25;;;18.56;100.00
51299;BME280;37382;45.192;9.790;2023-06-05T04:30:44;101196.56;;;18.55;100.00
51299;BME280;37382;45.192;9.790;2023-06-05T04:33:14;101203.28;;;18.59;100.00
51299;BME280;37382;45.192;9.790;2023-06-05T04:35:42;101204.72;;;18.74;100.00
51299;BME280;37382;45.192;9.790;2023-06-05T04:38:09;101202.34;;;18.65;100.00
51299;BME280;37382;45.192;9.790;2023-06-05T04:40:37;101199.44;;;18.72;100.00
51299;BME280;37382;45.192;9.790;2023-06-05T04:43:05;101201.47;;;18.65;100.00
51299;BME280;37382;45.192;9.790;2023-06-05T04:45:33;101198.22;;;18.68;100.00
51299;BME280;37382;45.192;9.790;2023-06-05T04:48:01;101201.84;;;18.69;100.00
51299;BME280;37382;45.192;9.790;2023-06-05T04:50:29;101203.50;;;18.81;100.00
51299;BME280;37382;45.192;9.790;2023-06-05T04:53:07;101203.03;;;18.73;100.00
51299;BME280;37382;45.192;9.790;2023-06-05T04:55:36;101204.34;;;18.82;100.00
51299;BME280;37382;45.192;9.790;2023-06-05T04:58:04;101203.25;;;18.83;100.00
51299;BME280;37382;45.192;9.790;2023-06-05T05:00:32;101205.78;;;18.84;100.00
51299;BME280;37382;45.192;9.790;2023-06-05T05:03:01;101204.50;;;18.87;100.00
51299;BME280;37382;45.192;9.790;2023-06-05T05:05:30;101204.94;;;18.84;100.00
51299;BME280;37382;45.192;9.790;2023-06-05T05:07:59;101203.25;;;18.83;100.00
51299;BME280;37382;45.192;9.790;2023-06-05T05:10:27;101207.13;;;18.82;100.00
51299;BME280;37382;45.192;9.790;2023-06-05T05:12:55;101213.47;;;18.82;100.00
51299;BME280;37382;45.192;9.790;2023-06-05T05:15:23;101205.06;;;18.89;100.00
51299;BME280;37382;45.192;9.790;2023-06-05T05:17:50;101206.13;;;19.00;100.00
51299;BME280;37382;45.192;9.790;2023-06-05T05:20:21;101213.81;;;18.98;100.00
51299;BME280;37382;45.192;9.790;2023-06-05T05:22:49;101217.75;;;18.78;100.00
51299;BME280;37382;45.192;9.790;2023-06-05T05:25:17;101216.97;;;18.90;100.00
51299;BME280;37382;45.192;9.790;2023-06-05T05:27:46;101213.72;;;18.93;100.00
51299;BME280;37382;45.192;9.790;2023-06-05T05:30:15;101215.75;;;18.86;100.00
51299;BME280;37382;45.192;9.790;2023-06-05T05:32:43;101218.25;;;18.99;100.00
51299;BME280;37382;45.192;9.790;2023-06-05T05:35:12;101211.91;;;18.98;100.00
51299;BME280;37382;45.192;9.790;2023-06-05T05:37:39;101220.91;;;18.82;100.00
51299;BME280;37382;45.192;9.790;2023-06-05T05:40:07;101222.09;;;18.98;100.00
51299;BME280;37382;45.192;9.790;2023-06-05T05:42:59;101226.16;;;19.07;100.00
51299;BME280;37382;45.192;9.790;2023-06-05T05:45:27;101220.84;;;19.17;100.00
51299;BME280;37382;45.192;9.790;2023-06-05T05:47:54;101223.63;;;19.17;100.00
51299;BME280;37382;45.192;9.790;2023-06-05T05:50:22;101223.06;;;19.04;100.00
51299;BME280;37382;45.192;9.790;2023-06-05T05:52:49;101225.66;;;19.10;100.00
51299;BME280;37382;45.192;9.790;2023-06-05T05:55:19;101227.28;;;19.35;100.00
51299;BME280;37382;45.192;9.790;2023-06-05T05:57:46;101209.25;;;19.44;100.00
51299;BME280;37382;45.192;9.790;2023-06-05T06:00:14;101217.72;;;19.54;100.00
51299;BME280;37382;45.192;9.790;2023-06-05T06:02:41;101217.34;;;19.63;100.00
51299;BME280;37382;45.192;9.790;2023-06-05T06:05:09;101218.03;;;19.70;100.00
51299;BME280;37382;45.192;9.790;2023-06-05T06:07:39;101212.31;;;19.88;100.00
51299;BME280;37382;45.192;9.790;2023-06-05T06:10:09;101217.75;;;19.83;100.00
51299;BME280;37382;45.192;9.790;2023-06-05T06:12:39;101217.94;;;19.94;100.00
51299;BME280;37382;45.192;9.790;2023-06-05T06:15:08;101216.13;;;19.99;100.00
51299;BME280;37382;45.192;9.790;2023-06-05T06:17:36;101217.34;;;19.91;100.00
51299;BME280;37382;45.192;9.790;2023-06-05T06:20:06;101225.97;;;19.95;100.00
51299;BME280;37382;45.192;9.790;2023-06-05T06:22:34;101216.97;;;20.17;100.00
51299;BME280;37382;45.192;9.790;2023-06-05T06:25:02;101221.03;;;20.31;100.00
51299;BME280;37382;45.192;9.790;2023-06-05T06:27:30;101216.53;;;20.25;100.00
51299;BME280;37382;45.192;9.790;2023-06-05T06:30:01;101224.16;;;20.01;100.00
51299;BME280;37382;45.192;9.790;2023-06-05T06:32:29;101228.38;;;19.91;100.00
51299;BME280;37382;45.192;9.790;2023-06-05T06:34:58;101226.66;;;20.02;100.00
51299;BME280;37382;45.192;9.790;2023-06-05T06:37:26;101234.25;;;19.95;100.00
51299;BME280;37382;45.192;9.790;2023-06-05T06:39:56;101233.78;;;20.15;100.00
51299;BME280;37382;45.192;9.790;2023-06-05T06:42:24;101234.78;;;20.09;100.00
51299;BME280;37382;45.192;9.790;2023-06-05T06:44:58;101249.78;;;20.13;100.00
51299;BME280;37382;45.192;9.790;2023-06-05T06:47:27;101244.91;;;20.03;100.00
51299;BME280;37382;45.192;9.790;2023-06-05T06:49:55;101240.31;;;20.43;100.00
51299;BME280;37382;45.192;9.790;2023-06-05T06:52:23;101244.66;;;20.05;100.00
51299;BME280;37382;45.192;9.790;2023-06-05T06:54:52;101252.03;;;20.16;100.00
51299;BME280;37382;45.192;9.790;2023-06-05T06:57:20;101246.53;;;20.33;100.00
51299;BME280;37382;45.192;9.790;2023-06-05T06:59:48;101241.41;;;20.42;100.00
51299;BME280;37382;45.192;9.790;2023-06-05T07:02:18;101246.09;;;20.41;100.00
51299;BME280;37382;45.192;9.790;2023-06-05T07:04:46;101242.94;;;20.33;100.00
51299;BME280;37382;45.192;9.790;2023-06-05T07:07:16;101244.25;;;20.47;100.00
51299;BME280;37382;45.192;9.790;2023-06-05T07:09:45;101252.19;;;20.26;100.00
51299;BME280;37382;45.192;9.790;2023-06-05T07:12:13;101249.97;;;20.40;100.00
51299;BME280;37382;45.192;9.790;2023-06-05T07:14:42;101243.00;;;20.38;100.00
51299;BME280;37382;45.192;9.790;2023-06-05T07:17:10;101255.75;;;20.39;100.00
51299;BME280;37382;45.192;9.790;2023-06-05T07:19:38;101247.53;;;20.44;100.00
51299;BME280;37382;45.192;9.790;2023-06-05T07:22:06;101252.13;;;20.38;100.00
51299;BME280;37382;45.192;9.790;2023-06-05T07:24:34;101263.78;;;20.40;100.00
51299;BME280;37382;45.192;9.790;2023-06-05T07:27:03;101256.75;;;20.50;100.00
51299;BME280;37382;45.192;9.790;2023-06-05T07:29:31;101256.06;;;20.42;100.00
51299;BME280;37382;45.192;9.790;2023-06-05T07:31:59;101256.25;;;20.53;100.00
51299;BME280;37382;45.192;9.790;2023-06-05T07:34:27;101250.38;;;20.66;100.00
51299;BME280;37382;45.192;9.790;2023-06-05T07:36:55;101254.72;;;20.62;100.00
51299;BME280;37382;45.192;9.790;2023-06-05T07:39:23;101244.94;;;20.71;100.00
51299;BME280;37382;45.192;9.790;2023-06-05T07:41:51;101244.50;;;20.62;100.00
51299;BME280;37382;45.192;9.790;2023-06-05T07:44:20;101254.31;;;20.70;100.00
51299;BME280;37382;45.192;9.790;2023-06-05T07:46:49;101243.66;;;20.79;100.00
51299;BME280;37382;45.192;9.790;2023-06-05T07:49:18;101250.09;;;20.51;100.00
51299;BME280;37382;45.192;9.790;2023-06-05T07:51:46;101252.50;;;20.98;100.00
51299;BME280;37382;45.192;9.790;2023-06-05T07:54:15;101252.75;;;20.96;100.00
51299;BME280;37382;45.192;9.790;2023-06-05T07:56:43;101246.41;;;20.96;100.00
51299;BME280;37382;45.192;9.790;2023-06-05T07:59:12;101252.91;;;21.07;100.00
51299;BME280;37382;45.192;9.790;2023-06-05T08:01:42;101257.00;;;20.82;100.00
51299;BME280;37382;45.192;9.790;2023-06-05T08:04:10;101256.13;;;20.65;100.00
51299;BME280;37382;45.192;9.790;2023-06-05T08:06:38;101255.81;;;20.61;100.00
51299;BME280;37382;45.192;9.790;2023-06-05T08:09:07;101254.88;;;20.55;100.00
51299;BME280;37382;45.192;9.790;2023-06-05T08:11:37;101257.50;;;20.62;100.00
51299;BME280;37382;45.192;9.790;2023-06-05T08:14:05;101258.00;;;20.42;100.00
51299;BME280;37382;45.192;9.790;2023-06-05T08:16:33;101257.00;;;20.48;100.00
51299;BME280;37382;45.192;9.790;2023-06-05T08:19:01;101260.00;;;20.47;100.00
51299;BME280;37382;45.192;9.790;2023-06-05T08:21:30;101262.50;;;20.31;100.00
51299;BME280;37382;45.192;9.790;2023-06-05T08:23:58;101260.09;;;20.52;100.00
51299;BME280;37382;45.192;9.790;2023-06-05T08:26:25;101256.31;;;20.75;100.00
51299;BME280;37382;45.192;9.790;2023-06-05T08:28:53;101254.06;;;20.72;100.00
51299;BME280;37382;45.192;9.790;2023-06-05T08:31:21;101266.19;;;20.88;100.00
51299;BME280;37382;45.192;9.790;2023-06-05T08:33:49;101262.28;;;20.67;100.00
51299;BME280;37382;45.192;9.790;2023-06-05T08:36:17;101255.50;;;20.74;100.00
51299;BME280;37382;45.192;9.790;2023-06-05T08:38:44;101255.78;;;20.95;100.00
51299;BME280;37382;45.192;9.790;2023-06-05T08:41:13;101258.88;;;20.99;100.00
51299;BME280;37382;45.192;9.790;2023-06-05T08:43:43;101254.72;;;21.40;100.00
51299;BME280;37382;45.192;9.790;2023-06-05T08:46:14;101260.84;;;21.20;100.00
51299;BME280;37382;45.192;9.790;2023-06-05T08:48:45;101256.00;;;21.10;100.00
51299;BME280;37382;45.192;9.790;2023-06-05T08:51:17;101261.91;;;21.19;100.00
51299;BME280;37382;45.192;9.790;2023-06-05T08:53:54;101263.19;;;21.50;100.00
51299;BME280;37382;45.192;9.790;2023-06-05T08:56:24;101264.06;;;21.34;100.00
51299;BME280;37382;45.192;9.790;2023-06-05T08:58:54;101265.59;;;20.86;100.00
51299;BME280;37382;45.192;9.790;2023-06-05T09:01:23;101270.22;;;20.46;100.00
51299;BME280;37382;45.192;9.790;2023-06-05T09:03:53;101270.63;;;20.55;100.00
51299;BME280;37382;45.192;9.790;2023-06-05T09:06:21;101276.66;;;20.52;100.00
51299;BME280;37382;45.192;9.790;2023-06-05T09:08:50;101279.09;;;20.48;100.00
51299;BME280;37382;45.192;9.790;2023-06-05T09:11:22;101278.09;;;20.54;100.00
51299;BME280;37382;45.192;9.790;2023-06-05T09:13:51;101286.78;;;20.29;100.00
51299;BME280;37382;45.192;9.790;2023-06-05T09:16:23;101292.44;;;20.05;100.00
51299;BME280;37382;45.192;9.790;2023-06-05T09:18:59;101293.13;;;19.84;100.00
51299;BME280;37382;45.192;9.790;2023-06-05T09:21:28;101295.31;;;19.70;100.00
51299;BME280;37382;45.192;9.790;2023-06-05T09:24:20;101303.28;;;19.54;100.00
51299;BME280;37382;45.192;9.790;2023-06-05T09:26:57;101308.94;;;19.48;100.00
51299;BME280;37382;45.192;9.790;2023-06-05T09:29:35;101311.25;;;19.15;100.00
51299;BME280;37382;45.192;9.790;2023-06-05T09:32:07;101310.53;;;19.32;100.00
51299;BME280;37382;45.192;9.790;2023-06-05T09:34:40;101302.97;;;19.15;100.00
51299;BME280;37382;45.192;9.790;2023-06-05T09:37:09;101307.19;;;19.18;100.00
51299;BME280;37382;45.192;9.790;2023-06-05T09:39:41;101308.16;;;19.00;100.00
51299;BME280;37382;45.192;9.790;2023-06-05T09:42:13;101306.13;;;18.95;100.00
51299;BME280;37382;45.192;9.790;2023-06-05T09:44:40;101301.31;;;19.02;100.00
51299;BME280;37382;45.192;9.790;2023-06-05T09:47:09;101310.91;;;19.12;100.00
51299;BME280;37382;45.192;9.790;2023-06-05T09:52:07;101302.16;;;19.03;100.00
51299;BME280;37382;45.192;9.790;2023-06-05T09:54:43;101305.28;;;19.07;100.00
51299;BME280;37382;45.192;9.790;2023-06-05T09:57:15;101305.50;;;19.29;100.00
51299;BME280;37382;45.192;9.790;2023-06-05T09:59:52;101302.03;;;19.22;100.00
51299;BME280;37382;45.192;9.790;2023-06-05T10:02:24;101301.19;;;19.33;100.00
51299;BME280;37382;45.192;9.790;2023-06-05T10:04:59;101301.25;;;19.50;100.00
51299;BME280;37382;45.192;9.790;2023-06-05T10:07:27;101300.19;;;19.51;100.00
51299;BME280;37382;45.192;9.790;2023-06-05T10:09:55;101299.72;;;19.42;100.00
51299;BME280;37382;45.192;9.790;2023-06-05T10:12:24;101293.13;;;19.43;100.00
51299;BME280;37382;45.192;9.790;2023-06-05T10:14:55;101284.97;;;19.89;100.00
51299;BME280;37382;45.192;9.790;2023-06-05T10:17:23;101293.28;;;19.77;100.00
51299;BME280;37382;45.192;9.790;2023-06-05T10:19:51;101294.81;;;20.14;100.00
51299;BME280;37382;45.192;9.790;2023-06-05T10:22:19;101287.66;;;20.47;100.00
51299;BME280;37382;45.192;9.790;2023-06-05T10:24:54;101279.19;;;20.36;100.00
51299;BME280;37382;45.192;9.790;2023-06-05T10:33:19;101277.75;;;20.68;100.00
51299;BME280;37382;45.192;9.790;2023-06-05T10:35:54;101281.31;;;20.80;100.00
51299;BME280;37382;45.192;9.790;2023-06-05T10:38:29;101284.81;;;20.92;100.00
51299;BME280;37382;45.192;9.790;2023-06-05T10:41:00;101281.44;;;20.73;100.00
51299;BME280;37382;45.192;9.790;2023-06-05T10:43:31;101277.81;;;21.07;100.00
51299;BME280;37382;45.192;9.790;2023-06-05T10:46:01;101276.31;;;20.99;100.00
51299;BME280;37382;45.192;9.790;2023-06-05T10:51:42;101273.28;;;21.62;100.00
51299;BME280;37382;45.192;9.790;2023-06-05T10:59:24;101264.28;;;21.99;100.00
51299;BME280;37382;45.192;9.790;2023-06-05T11:07:21;101263.03;;;22.44;100.00
51299;BME280;37382;45.192;9.790;2023-06-05T11:15:05;101260.13;;;21.74;100.00
51299;BME280;37382;45.192;9.790;2023-06-05T11:20:48;101255.63;;;22.23;100.00
51299;BME280;37382;45.192;9.790;2023-06-05T11:25:24;101254.94;;;22.37;100.00
51299;BME280;37382;45.192;9.790;2023-06-05T11:27:58;101256.13;;;22.47;100.00
51299;BME280;37382;45.192;9.790;2023-06-05T11:30:29;101254.53;;;22.56;100.00
51299;BME280;37382;45.192;9.790;2023-06-05T11:33:19;101261.00;;;22.67;100.00
51299;BME280;37382;45.192;9.790;2023-06-05T11:35:49;101260.78;;;22.79;100.00
51299;BME280;37382;45.192;9.790;2023-06-05T11:38:21;101259.25;;;22.98;100.00
51299;BME280;37382;45.192;9.790;2023-06-05T11:40:53;101251.47;;;22.95;100.00
51299;BME280;37382;45.192;9.790;2023-06-05T11:43:21;101254.53;;;22.99;100.00
51299;BME280;37382;45.192;9.790;2023-06-05T11:45:54;101251.41;;;22.85;100.00
51299;BME280;37382;45.192;9.790;2023-06-05T11:48:23;101253.00;;;22.70;100.00
51299;BME280;37382;45.192;9.790;2023-06-05T11:51:01;101251.69;;;22.46;100.00
51299;BME280;37382;45.192;9.790;2023-06-05T11:53:31;101244.44;;;22.77;100.00
51299;BME280;37382;45.192;9.790;2023-06-05T11:56:00;101255.81;;;22.81;100.00
51299;BME280;37382;45.192;9.790;2023-06-05T11:58:35;101255.13;;;23.06;100.00
51299;BME280;37382;45.192;9.790;2023-06-05T12:01:08;101244.19;;;22.84;100.00
51299;BME280;37382;45.192;9.790;2023-06-05T12:03:41;101246.53;;;23.07;100.00
51299;BME280;37382;45.192;9.790;2023-06-05T12:06:09;101247.78;;;23.32;100.00
51299;BME280;37382;45.192;9.790;2023-06-05T12:08:40;101249.84;;;23.62;100.00
51299;BME280;37382;45.192;9.790;2023-06-05T12:11:26;101228.00;;;23.87;100.00
51299;BME280;37382;45.192;9.790;2023-06-05T12:13:55;101231.50;;;23.56;100.00
51299;BME280;37382;45.192;9.790;2023-06-05T12:16:55;101226.88;;;24.39;100.00
51299;BME280;37382;45.192;9.790;2023-06-05T12:19:26;101228.56;;;24.50;100.00
51299;BME280;37382;45.192;9.790;2023-06-05T12:22:02;101215.19;;;24.52;100.00
51299;BME280;37382;45.192;9.790;2023-06-05T12:24:30;101211.59;;;24.01;100.00
51299;BME280;37382;45.192;9.790;2023-06-05T12:27:01;101212.44;;;24.27;100.00
51299;BME280;37382;45.192;9.790;2023-06-05T12:29:30;101205.22;;;24.05;100.00
51299;BME280;37382;45.192;9.790;2023-06-05T12:32:00;101211.34;;;24.12;100.00
51299;BME280;37382;45.192;9.790;2023-06-05T12:34:43;101201.56;;;24.66;100.00
51299;BME280;37382;45.192;9.790;2023-06-05T12:37:28;101202.44;;;24.67;100.00
51299;BME280;37382;45.192;9.790;2023-06-05T12:39:58;101207.44;;;24.03;100.00
51299;BME280;37382;45.192;9.790;2023-06-05T12:42:32;101201.56;;;23.74;100.00
51299;BME280;37382;45.192;9.790;2023-06-05T12:45:04;101207.31;;;23.57;100.00
51299;BME280;37382;45.192;9.790;2023-06-05T12:47:33;101203.41;;;23.37;100.00
51299;BME280;37382;45.192;9.790;2023-06-05T12:50:04;101189.09;;;24.23;100.00
51299;BME280;37382;45.192;9.790;2023-06-05T12:52:33;101191.56;;;24.55;100.00
51299;BME280;37382;45.192;9.790;2023-06-05T12:55:00;101188.81;;;24.29;100.00
51299;BME280;37382;45.192;9.790;2023-06-05T12:57:28;101186.88;;;24.14;100.00
51299;BME280;37382;45.192;9.790;2023-06-05T12:59:56;101181.56;;;24.39;100.00
51299;BME280;37382;45.192;9.790;2023-06-05T13:02:24;101189.34;;;24.31;100.00
51299;BME280;37382;45.192;9.790;2023-06-05T13:04:52;101189.91;;;24.49;100.00
51299;BME280;37382;45.192;9.790;2023-06-05T13:07:20;101184.28;;;24.80;100.00
51299;BME280;37382;45.192;9.790;2023-06-05T13:09:49;101179.22;;;25.57;100.00
51299;BME280;37382;45.192;9.790;2023-06-05T13:12:19;101183.88;;;25.12;100.00
51299;BME280;37382;45.192;9.790;2023-06-05T13:14:47;101186.25;;;25.50;100.00
51299;BME280;37382;45.192;9.790;2023-06-05T13:17:15;101179.84;;;25.49;100.00
51299;BME280;37382;45.192;9.790;2023-06-05T13:19:43;101180.56;;;25.65;100.00
51299;BME280;37382;45.192;9.790;2023-06-05T13:22:11;101179.84;;;25.44;100.00
51299;BME280;37382;45.192;9.790;2023-06-05T13:24:39;101166.16;;;25.53;100.00
51299;BME280;37382;45.192;9.790;2023-06-05T13:27:07;101165.09;;;25.44;100.00